Time;durP1;ratioP1;P1;durP2;ratioP2;P2;SDS_P1;SDS_P2;PMS_P1;PMS_P2;Temp;Humidity;BMP_temperature;BMP_pressure;BME280_temperature;BME280_humidity;BME280_pressure;Samples;Min_cycle;Max_cycle;Signal;HPM_P1;HPM_P2
2021/10/26 00:01:53;;;;;;;129.23;53.17;;;;;;;0.76;69.54;95470.36;1585833;89;21089;-60
2021/10/26 00:04:21;;;;;;;113.20;48.33;;;;;;;0.74;69.68;95480.02;1554704;90;21145;-60
2021/10/26 00:06:48;;;;;;;125.25;55.75;;;;;;;0.65;69.77;95477.58;1633309;86;21457;-61
2021/10/26 00:09:16;;;;;;;141.55;56.60;;;;;;;0.53;69.93;95468.87;1611935;88;21212;-64
2021/10/26 00:11:43;;;;;;;134.32;54.50;;;;;;;0.41;70.18;95470.45;1615885;86;21564;-60
2021/10/26 00:14:10;;;;;;;122.25;47.70;;;;;;;0.37;70.47;95466.34;1634010;86;20991;-60
2021/10/26 00:16:37;;;;;;;104.72;47.33;;;;;;;0.36;70.34;95462.62;1629109;86;21018;-60
2021/10/26 00:19:04;;;;;;;150.65;54.53;;;;;;;0.33;70.30;95468.22;1634221;87;21077;-60
2021/10/26 00:21:31;;;;;;;119.05;53.20;;;;;;;0.31;70.38;95460.25;1623020;86;21483;-60
2021/10/26 00:23:58;;;;;;;132.25;54.88;;;;;;;0.26;70.84;95463.27;1622496;86;21549;-60
2021/10/26 00:26:25;;;;;;;133.52;56.05;;;;;;;0.23;71.06;95460.70;1624196;86;21100;-61
2021/10/26 00:28:54;;;;;;;141.95;56.63;;;;;;;0.20;71.24;95453.33;1634446;86;21021;-60
2021/10/26 00:31:20;;;;;;;136.97;59.55;;;;;;;0.15;71.31;95453.64;1629564;86;21456;-61
2021/10/26 00:33:47;;;;;;;153.47;58.25;;;;;;;0.11;71.48;95447.41;1623659;86;21882;-61
2021/10/26 00:36:14;;;;;;;123.92;51.42;;;;;;;0.07;71.68;95447.91;1631096;86;21718;-60
2021/10/26 00:38:41;;;;;;;128.55;52.40;;;;;;;0.01;71.72;95439.14;1629558;86;21117;-60
2021/10/26 00:41:08;;;;;;;150.85;58.23;;;;;;;-0.10;71.68;95437.38;1626317;86;21136;-61
2021/10/26 00:43:35;;;;;;;131.12;55.80;;;;;;;-0.24;71.96;95432.53;1636022;86;21031;-60
2021/10/26 00:46:02;;;;;;;138.25;56.25;;;;;;;-0.26;72.36;95434.06;1625678;86;21823;-61
2021/10/26 00:48:31;;;;;;;134.60;55.98;;;;;;;-0.25;72.74;95432.91;1590286;87;20994;-60
2021/10/26 00:50:58;;;;;;;111.92;48.75;;;;;;;-0.20;72.99;95429.90;1599086;88;21026;-60
2021/10/26 00:53:25;;;;;;;115.42;50.03;;;;;;;-0.06;72.73;95435.53;1585491;88;21085;-60
2021/10/26 00:55:52;;;;;;;134.65;54.30;;;;;;;-0.03;72.53;95426.70;1600820;88;21093;-61
2021/10/26 00:58:20;;;;;;;131.18;53.15;;;;;;;0.08;72.37;95429.77;1604182;88;21824;-60
2021/10/26 01:00:47;;;;;;;132.70;52.83;;;;;;;0.16;72.31;95423.30;1575531;89;21061;-60
2021/10/26 01:03:16;;;;;;;133.57;55.08;;;;;;;0.25;71.92;95420.55;1583722;89;21653;-60
2021/10/26 01:05:45;;;;;;;131.32;54.50;;;;;;;0.28;71.49;95419.84;1584867;89;21519;-60
2021/10/26 01:08:14;;;;;;;149.07;58.85;;;;;;;0.30;71.43;95424.31;1581435;89;21617;-60
2021/10/26 01:10:42;;;;;;;135.45;60.60;;;;;;;0.29;71.33;95424.10;1589358;87;21163;-61
2021/10/26 01:13:09;;;;;;;149.75;62.50;;;;;;;0.30;71.22;95426.22;1619675;86;21056;-61
2021/10/26 01:15:36;;;;;;;147.90;57.15;;;;;;;0.28;71.31;95421.19;1617887;86;21085;-62
2021/10/26 01:18:05;;;;;;;123.28;50.52;;;;;;;0.30;71.15;95418.10;1598367;89;21077;-61
2021/10/26 01:20:32;;;;;;;137.10;53.05;;;;;;;0.32;70.77;95420.66;1584307;89;21195;-60
2021/10/26 01:22:59;;;;;;;118.15;50.65;;;;;;;0.26;70.40;95418.05;1634271;86;21172;-60
2021/10/26 01:25:26;;;;;;;128.12;54.80;;;;;;;0.21;70.60;95407.55;1632147;86;21082;-60
2021/10/26 01:27:53;;;;;;;117.50;49.55;;;;;;;0.20;70.60;95408.69;1626189;86;21021;-61
2021/10/26 01:30:26;;;;;;;144.53;61.60;;;;;;;0.17;70.54;95414.05;1633323;86;21101;-60
2021/10/26 01:32:54;;;;;;;135.18;58.68;;;;;;;0.07;70.90;95412.74;1634910;86;21506;-60
2021/10/26 01:35:23;;;;;;;131.60;56.18;;;;;;;-0.01;71.19;95415.70;1634822;86;21960;-60
2021/10/26 01:37:49;;;;;;;136.35;56.30;;;;;;;-0.01;71.41;95412.44;1629362;86;21452;-61
2021/10/26 01:40:16;;;;;;;127.47;53.33;;;;;;;-0.03;71.48;95403.71;1629567;86;21490;-60
2021/10/26 01:42:44;;;;;;;128.27;53.00;;;;;;;-0.07;71.51;95413.70;1628449;87;21102;-61
2021/10/26 01:45:11;;;;;;;138.22;55.17;;;;;;;-0.13;71.63;95408.38;1625565;86;21010;-61
2021/10/26 01:47:38;;;;;;;128.65;51.80;;;;;;;-0.15;71.76;95410.66;1631295;86;21145;-62
2021/10/26 01:50:09;;;;;;;126.85;51.85;;;;;;;-0.15;71.81;95409.30;1622840;86;21577;-60
2021/10/26 01:52:36;;;;;;;127.05;53.15;;;;;;;-0.20;72.01;95413.09;1631167;86;20980;-60
2021/10/26 01:55:04;;;;;;;120.33;52.83;;;;;;;-0.27;72.18;95406.23;1625471;87;21050;-60
2021/10/26 01:57:33;;;;;;;131.10;49.88;;;;;;;-0.30;72.36;95406.96;1630663;86;21085;-60
2021/10/26 02:00:08;;;;;;;118.20;50.43;;;;;;;-0.34;72.56;95400.73;1633238;86;21560;-61
2021/10/26 02:02:37;;;;;;;122.60;47.90;;;;;;;-0.34;72.73;95395.88;1597581;89;21673;-60
2021/10/26 02:05:05;;;;;;;118.25;48.05;;;;;;;-0.33;72.86;95391.47;1619336;87;21101;-60
2021/10/26 02:07:32;;;;;;;123.58;50.73;;;;;;;-0.32;72.92;95389.53;1598883;88;21053;-60
2021/10/26 02:09:59;;;;;;;127.20;50.33;;;;;;;-0.35;72.86;95387.56;1609248;87;21131;-60
2021/10/26 02:12:26;;;;;;;104.83;47.33;;;;;;;-0.41;72.78;95389.78;1599645;87;21162;-60
2021/10/26 02:14:55;;;;;;;109.32;48.70;;;;;;;-0.42;72.92;95395.56;1608286;88;21378;-60
2021/10/26 02:17:22;;;;;;;116.15;49.08;;;;;;;-0.42;72.98;95391.52;1606546;87;21128;-61
2021/10/26 02:19:49;;;;;;;103.07;45.03;;;;;;;-0.42;72.78;95388.81;1598945;89;21148;-61
2021/10/26 02:22:17;;;;;;;117.33;47.58;;;;;;;-0.42;73.13;95386.11;1598694;88;21081;-60
2021/10/26 02:24:44;;;;;;;97.60;44.00;;;;;;;-0.36;72.92;95384.65;1589165;88;21184;-60
2021/10/26 02:27:11;;;;;;;107.03;46.02;;;;;;;-0.34;72.64;95381.02;1579313;87;21056;-60
2021/10/26 02:29:39;;;;;;;152.07;68.52;;;;;;;-0.33;72.77;95387.97;1605514;88;21572;-62
2021/10/26 02:32:07;;;;;;;115.30;50.38;;;;;;;-0.24;72.55;95385.23;1604306;88;21132;-61
2021/10/26 02:34:34;;;;;;;124.87;54.93;;;;;;;-0.19;72.32;95380.09;1609892;88;21088;-61
2021/10/26 02:37:03;;;;;;;122.78;53.80;;;;;;;-0.14;72.14;95383.27;1605683;88;21125;-61
2021/10/26 02:39:30;;;;;;;125.02;55.73;;;;;;;-0.08;71.99;95379.69;1608257;87;20986;-59
2021/10/26 02:41:58;;;;;;;125.05;59.35;;;;;;;0.03;71.97;95386.22;1585329;88;21227;-60
2021/10/26 02:44:24;;;;;;;117.75;49.70;;;;;;;0.15;71.62;95385.23;1586358;89;21106;-60
2021/10/26 02:46:51;;;;;;;96.30;45.28;;;;;;;0.22;71.21;95379.34;1603408;88;21433;-60
2021/10/26 02:49:18;;;;;;;98.27;47.10;;;;;;;0.24;70.91;95379.75;1603773;88;22368;-60
2021/10/26 02:51:45;;;;;;;91.57;43.80;;;;;;;0.13;70.83;95385.61;1572488;89;20972;-60
2021/10/26 02:54:12;;;;;;;89.95;41.63;;;;;;;0.08;70.65;95377.79;1577922;88;21162;-60
2021/10/26 02:56:39;;;;;;;121.45;55.45;;;;;;;-0.01;70.50;95385.95;1601454;87;21010;-60
2021/10/26 02:59:07;;;;;;;99.25;46.45;;;;;;;-0.09;70.85;95376.75;1599010;88;21001;-61
2021/10/26 03:01:33;;;;;;;109.03;49.70;;;;;;;-0.13;70.86;95374.58;1581667;89;21743;-59
2021/10/26 03:04:01;;;;;;;107.37;49.95;;;;;;;-0.18;70.80;95372.19;1577674;88;21336;-60
2021/10/26 03:06:28;;;;;;;107.27;53.02;;;;;;;-0.27;70.82;95373.80;1580243;89;21132;-59
2021/10/26 03:08:57;;;;;;;120.20;60.15;;;;;;;-0.30;70.87;95375.08;1598899;87;21102;-56
2021/10/26 03:11:25;;;;;;;120.55;59.42;;;;;;;-0.36;70.95;95367.87;1601378;88;21070;-55
2021/10/26 03:13:52;;;;;;;139.20;66.62;;;;;;;-0.38;71.18;95370.13;1598626;89;21123;-56
2021/10/26 03:16:19;;;;;;;131.40;63.25;;;;;;;-0.32;71.22;95373.31;1573407;90;21100;-60
2021/10/26 03:18:46;;;;;;;119.25;58.52;;;;;;;-0.29;71.24;95369.33;1599359;89;20997;-61
2021/10/26 03:21:13;;;;;;;128.05;60.55;;;;;;;-0.20;71.39;95363.67;1610183;87;21235;-58
2021/10/26 03:23:40;;;;;;;131.75;64.27;;;;;;;-0.08;71.41;95367.53;1608161;88;21038;-61
2021/10/26 03:26:07;;;;;;;144.95;68.52;;;;;;;0.07;71.32;95361.94;1605925;87;21158;-62
2021/10/26 03:28:35;;;;;;;117.53;56.15;;;;;;;0.23;70.90;95363.91;1609288;87;21024;-61
2021/10/26 03:31:04;;;;;;;99.65;51.48;;;;;;;0.29;70.59;95369.98;1599644;88;21572;-62
2021/10/26 03:33:49;;;;;;;110.08;53.73;;;;;;;0.36;70.42;95371.42;1571718;89;21008;-62
2021/10/26 03:36:18;;;;;;;114.88;52.62;;;;;;;0.40;70.39;95364.12;1598202;89;45217;-62
2021/10/26 03:38:47;;;;;;;97.70;46.60;;;;;;;0.42;69.92;95353.71;1573009;89;21519;-62
2021/10/26 03:41:14;;;;;;;99.67;49.13;;;;;;;0.45;69.46;95363.03;1589573;89;21044;-61
2021/10/26 03:43:41;;;;;;;109.22;51.68;;;;;;;0.31;69.26;95355.52;1588881;89;21077;-61
2021/10/26 03:46:12;;;;;;;105.60;48.42;;;;;;;0.21;69.57;95357.50;1603268;87;21052;-61
2021/10/26 03:48:38;;;;;;;97.33;50.08;;;;;;;0.18;69.63;95350.67;1590411;89;21048;-61
2021/10/26 03:51:05;;;;;;;104.58;50.08;;;;;;;0.08;69.52;95352.09;1585215;88;21149;-62
2021/10/26 03:53:32;;;;;;;116.40;54.10;;;;;;;0.04;69.61;95353.98;1629590;86;20985;-62
2021/10/26 03:55:59;;;;;;;134.75;66.42;;;;;;;0.09;69.45;95357.74;1600625;89;21040;-62
2021/10/26 03:58:25;;;;;;;132.60;66.42;;;;;;;0.16;69.56;95347.00;1633044;86;21533;-63
2021/10/26 04:00:54;;;;;;;136.75;65.42;;;;;;;0.26;69.27;95345.00;1630915;86;20985;-61
2021/10/26 04:03:25;;;;;;;296.73;192.87;;;;;;;0.31;68.78;95350.11;1631173;86;21166;-61
2021/10/26 04:06:00;;;;;;;189.00;102.50;;;;;;;0.30;68.60;95349.91;1619952;86;21120;-61
2021/10/26 04:08:33;;;;;;;128.93;67.30;;;;;;;0.32;68.84;95352.23;1626340;86;21190;-61
2021/10/26 04:10:59;;;;;;;108.83;56.50;;;;;;;0.38;68.53;95342.07;1629819;87;21557;-61
2021/10/26 04:13:26;;;;;;;97.22;48.98;;;;;;;0.40;68.21;95333.01;1632918;86;21041;-61
2021/10/26 04:15:56;;;;;;;88.72;46.42;;;;;;;0.34;68.18;95341.25;1614739;86;21140;-61
2021/10/26 04:18:23;;;;;;;100.00;45.38;;;;;;;0.25;68.60;95342.09;1629247;87;21118;-62
2021/10/26 04:20:51;;;;;;;110.52;50.60;;;;;;;0.21;68.50;95340.50;1632503;86;21586;-62
2021/10/26 04:23:18;;;;;;;107.85;49.73;;;;;;;0.10;68.54;95336.87;1628528;86;21104;-63
2021/10/26 04:25:46;;;;;;;107.92;53.90;;;;;;;0.12;68.85;95339.42;1608716;87;21140;-61
2021/10/26 04:28:13;;;;;;;116.95;51.95;;;;;;;0.18;68.59;95337.95;1626964;87;21155;-62
2021/10/26 04:30:41;;;;;;;111.32;48.63;;;;;;;0.19;68.45;95335.45;1631003;87;21028;-61
2021/10/26 04:33:08;;;;;;;101.82;48.50;;;;;;;0.20;68.47;95338.36;1634938;86;21025;-61
2021/10/26 04:35:35;;;;;;;110.40;47.67;;;;;;;0.19;68.60;95346.86;1606152;87;21097;-61
2021/10/26 04:38:03;;;;;;;101.45;44.80;;;;;;;0.09;68.55;95347.48;1629343;87;21084;-62
2021/10/26 04:40:31;;;;;;;101.42;47.17;;;;;;;0.00;68.73;95339.63;1621428;87;21126;-63
2021/10/26 04:43:00;;;;;;;93.70;41.85;;;;;;;-0.13;68.73;95328.61;1625239;86;21486;-62
2021/10/26 04:45:28;;;;;;;95.67;43.92;;;;;;;-0.18;69.02;95334.34;1627155;86;21221;-61
2021/10/26 04:47:55;;;;;;;88.52;43.42;;;;;;;-0.22;69.34;95328.87;1580762;88;21027;-61
2021/10/26 04:50:30;;;;;;;94.00;43.95;;;;;;;-0.24;69.33;95332.52;1600985;88;21533;-61
2021/10/26 04:52:54;;;;;;;115.60;52.45;;;;;;;-0.27;69.34;95333.25;1583822;89;21214;-62
2021/10/26 04:55:22;;;;;;;105.40;49.73;;;;;;;-0.31;69.52;95332.42;1626570;86;21064;-62
2021/10/26 04:57:49;;;;;;;118.45;52.03;;;;;;;-0.26;69.63;95325.34;1610046;87;20986;-62
2021/10/26 05:00:17;;;;;;;115.03;50.48;;;;;;;-0.17;69.67;95327.79;1616682;88;21163;-62
2021/10/26 05:02:45;;;;;;;111.68;49.63;;;;;;;-0.04;69.60;95333.20;1609221;88;21493;-63
2021/10/26 05:05:12;;;;;;;114.85;48.73;;;;;;;0.06;69.61;95325.23;1632350;87;21151;-62
2021/10/26 05:07:40;;;;;;;114.72;55.03;;;;;;;0.17;69.45;95323.42;1630825;86;21546;-63
2021/10/26 05:10:07;;;;;;;96.50;47.30;;;;;;;0.26;69.13;95322.59;1628223;86;21026;-62
2021/10/26 05:12:36;;;;;;;99.42;46.30;;;;;;;0.31;68.73;95327.11;1628612;86;21077;-62
2021/10/26 05:15:04;;;;;;;93.30;44.93;;;;;;;0.32;68.57;95330.02;1633113;86;21128;-62
2021/10/26 05:17:52;;;;;;;101.18;46.55;;;;;;;0.26;68.37;95331.47;1611933;88;22031;-63
2021/10/26 05:20:23;;;;;;;106.17;47.03;;;;;;;0.28;68.69;95325.70;1575076;87;21136;-62
2021/10/26 05:23:11;;;;;;;85.10;43.98;;;;;;;0.34;68.46;95322.31;1585600;88;20997;-63
2021/10/26 05:25:50;;;;;;;107.85;49.80;;;;;;;0.35;68.05;95328.48;1601306;87;21093;-64
2021/10/26 05:28:19;;;;;;;199.30;86.45;;;;;;;0.23;68.07;95337.63;1581819;89;21215;-63
2021/10/26 05:30:46;;;;;;;164.13;74.10;;;;;;;0.03;68.10;95330.78;1634244;87;21209;-65
2021/10/26 05:33:13;;;;;;;145.45;62.30;;;;;;;-0.09;68.27;95331.58;1623083;86;21549;-63
2021/10/26 05:35:40;;;;;;;144.17;68.55;;;;;;;-0.20;68.47;95340.09;1629780;85;21292;-63
2021/10/26 05:38:07;;;;;;;158.12;68.52;;;;;;;-0.23;68.72;95340.07;1625333;85;21405;-67
2021/10/26 05:40:37;;;;;;;161.82;69.32;;;;;;;-0.27;68.86;95345.41;1603728;86;21038;-65
2021/10/26 05:43:07;;;;;;;207.60;85.72;;;;;;;-0.21;69.07;95335.08;1631532;86;21245;-66
2021/10/26 05:45:34;;;;;;;160.05;70.92;;;;;;;-0.12;68.92;95341.78;1629537;85;21635;-63
2021/10/26 05:48:01;;;;;;;162.00;76.20;;;;;;;-0.03;68.88;95342.87;1623902;85;21154;-63
2021/10/26 05:50:28;;;;;;;193.75;85.28;;;;;;;0.02;68.98;95347.39;1601536;86;21551;-62
2021/10/26 05:52:55;;;;;;;244.93;112.22;;;;;;;0.12;69.09;95348.89;1620997;86;21112;-63
2021/10/26 05:55:22;;;;;;;314.40;146.55;;;;;;;0.25;68.97;95346.14;1641469;86;21216;-62
2021/10/26 05:57:49;;;;;;;249.90;99.20;;;;;;;0.40;69.18;95346.53;1628722;86;21128;-64
2021/10/26 06:00:21;;;;;;;181.60;81.05;;;;;;;0.59;68.97;95353.73;1595572;86;21170;-63
2021/10/26 06:02:52;;;;;;;176.32;83.52;;;;;;;0.66;68.87;95349.75;1639162;85;21061;-63
2021/10/26 06:05:20;;;;;;;242.97;129.42;;;;;;;0.64;68.61;95352.84;1632892;85;22155;-57
2021/10/26 06:07:47;;;;;;;167.32;82.12;;;;;;;0.67;69.02;95353.45;1634679;85;21327;-56
2021/10/26 06:10:14;;;;;;;155.78;77.25;;;;;;;0.72;68.91;95349.06;1629099;86;21039;-59
2021/10/26 06:12:50;;;;;;;150.62;69.85;;;;;;;0.73;68.75;95356.03;1631611;85;21980;-59
2021/10/26 06:15:12;;;;;;;159.60;72.92;;;;;;;0.67;68.61;95356.16;1641187;85;21046;-59
2021/10/26 06:17:39;;;;;;;156.10;75.20;;;;;;;0.60;68.84;95357.41;1647127;85;21567;-61
2021/10/26 06:20:07;;;;;;;121.72;60.98;;;;;;;0.59;69.20;95352.38;1627208;86;21147;-58
2021/10/26 06:22:34;;;;;;;112.28;56.80;;;;;;;0.63;69.50;95355.31;1620358;85;21075;-58
2021/10/26 06:25:02;;;;;;;124.82;60.23;;;;;;;0.74;69.73;95356.23;1623819;85;21099;-62
2021/10/26 06:27:31;;;;;;;185.40;94.72;;;;;;;0.82;69.72;95360.59;1630580;85;21168;-60
2021/10/26 06:30:00;;;;;;;202.72;102.30;;;;;;;0.88;69.82;95355.04;1600949;84;22102;-59
2021/10/26 06:32:32;;;;;;;181.40;91.25;;;;;;;1.00;69.90;95341.22;1620404;85;21324;-60
2021/10/26 06:35:00;;;;;;;161.73;83.52;;;;;;;1.22;69.93;95342.22;1618451;86;21050;-60
2021/10/26 06:37:28;;;;;;;151.42;77.47;;;;;;;1.48;69.81;95342.08;1617600;86;21118;-58
2021/10/26 06:39:57;;;;;;;144.20;72.22;;;;;;;1.74;69.32;95340.73;1592907;85;21156;-59
2021/10/26 06:42:24;;;;;;;120.37;62.67;;;;;;;1.93;68.76;95337.01;1632158;86;21723;-57
2021/10/26 06:45:11;;;;;;;98.85;51.65;;;;;;;2.03;68.37;95341.14;1606653;85;22960;-63
2021/10/26 06:47:57;;;;;;;79.17;44.00;;;;;;;2.00;68.35;95342.47;1616215;85;21112;-60
2021/10/26 06:50:46;;;;;;;68.75;39.20;;;;;;;1.97;68.52;95341.28;1598269;87;21076;-60
2021/10/26 06:53:38;;;;;;;71.42;40.25;;;;;;;1.99;68.65;95338.20;1610578;86;21105;-59
2021/10/26 06:56:16;;;;;;;83.17;43.83;;;;;;;2.05;68.58;95333.96;1625183;85;21506;-61
2021/10/26 06:59:02;;;;;;;97.05;46.95;;;;;;;2.15;68.53;95335.97;1605258;86;21162;-62
2021/10/26 07:01:46;;;;;;;74.37;40.30;;;;;;;2.30;68.45;95334.91;1579651;87;21033;-59
2021/10/26 07:04:15;;;;;;;98.92;48.00;;;;;;;2.55;68.06;95320.85;1603574;87;21063;-61
2021/10/26 07:07:02;;;;;;;81.53;40.73;;;;;;;2.75;67.93;95319.38;1620754;86;21164;-59
2021/10/26 07:09:41;;;;;;;61.33;32.15;;;;;;;3.05;67.57;95315.78;1626021;87;21065;-60
2021/10/26 07:12:10;;;;;;;72.97;33.63;;;;;;;3.34;66.75;95316.80;1622575;87;21956;-58
2021/10/26 07:14:38;;;;;;;50.30;26.05;;;;;;;3.49;66.18;95309.61;1625072;86;21644;-60
2021/10/26 07:17:10;;;;;;;40.95;21.93;;;;;;;3.58;66.06;95313.30;1623477;87;21024;-67
2021/10/26 07:19:37;;;;;;;34.18;21.48;;;;;;;3.61;66.10;95303.80;1637195;86;21072;-60
2021/10/26 07:22:21;;;;;;;34.10;18.90;;;;;;;3.72;65.96;95297.75;1620611;87;21044;-62
2021/10/26 07:25:08;;;;;;;32.60;17.70;;;;;;;3.80;65.79;95286.28;1638061;85;21186;-58
2021/10/26 07:27:33;;;;;;;32.67;17.98;;;;;;;3.89;65.42;95292.11;1637157;86;21221;-59
2021/10/26 07:30:10;;;;;;;23.22;13.83;;;;;;;3.93;64.79;95284.14;1584139;88;21045;-60
2021/10/26 07:32:41;;;;;;;28.77;14.07;;;;;;;4.07;64.34;95282.73;1624618;84;21097;-61
2021/10/26 07:35:11;;;;;;;28.77;16.32;;;;;;;4.27;63.75;95282.48;1609683;84;21056;-60
2021/10/26 07:37:45;;;;;;;;;;;;;;;4.43;63.50;95279.34;1616824;86;22152;-61
2021/10/26 07:40:17;;;;;;;33.88;20.23;;;;;;;4.54;63.24;95277.33;1605771;86;20196;-64
2021/10/26 07:43:02;;;;;;;38.50;21.45;;;;;;;4.64;63.07;95273.20;1641371;85;21663;-62
2021/10/26 07:45:48;;;;;;;44.50;23.87;;;;;;;4.72;62.84;95270.64;1613724;86;21065;-61
2021/10/26 07:48:14;;;;;;;47.85;26.00;;;;;;;4.82;62.23;95262.98;1625776;85;21052;-60
2021/10/26 07:50:43;;;;;;;42.50;24.63;;;;;;;4.94;61.96;95255.73;1632903;85;21136;-61
2021/10/26 07:53:17;;;;;;;50.28;27.93;;;;;;;5.12;61.65;95261.84;1625601;86;21095;-55
2021/10/26 07:55:53;;;;;;;48.85;27.48;;;;;;;5.29;61.15;95260.95;1625263;86;21093;-65
2021/10/26 07:58:20;;;;;;;49.27;27.02;;;;;;;5.46;60.84;95250.50;1608381;86;21096;-61
2021/10/26 08:00:51;;;;;;;39.98;24.18;;;;;;;5.66;60.19;95248.77;1627758;85;21056;-59
2021/10/26 08:03:23;;;;;;;48.40;26.62;;;;;;;5.87;59.69;95250.75;1631334;85;21200;-63
2021/10/26 08:05:57;;;;;;;41.00;22.02;;;;;;;6.07;59.17;95242.74;1631574;84;20917;-59
2021/10/26 08:08:25;;;;;;;42.00;23.77;;;;;;;6.27;58.56;95250.52;1629873;86;21093;-57
2021/10/26 08:10:54;;;;;;;39.90;22.15;;;;;;;6.40;58.13;95237.89;1624362;85;21026;-58
2021/10/26 08:13:20;;;;;;;33.85;18.50;;;;;;;6.51;57.60;95235.22;1636405;85;21089;-58
2021/10/26 08:15:48;;;;;;;28.12;17.12;;;;;;;6.66;57.46;95235.84;1627987;85;21109;-58
2021/10/26 08:18:17;;;;;;;27.42;15.83;;;;;;;6.81;57.08;95224.30;1629949;85;21778;-60
2021/10/26 08:20:48;;;;;;;21.90;14.10;;;;;;;7.01;56.46;95225.77;1626649;85;21036;-57
2021/10/26 08:23:17;;;;;;;17.60;11.33;;;;;;;7.20;56.01;95215.73;1632014;85;21210;-58
2021/10/26 08:25:50;;;;;;;17.12;10.72;;;;;;;7.43;55.15;95210.85;1628327;85;21100;-60
2021/10/26 08:28:16;;;;;;;26.30;11.53;;;;;;;7.70;54.12;95215.70;1615993;87;21189;-60
2021/10/26 08:35:47;;;;;;;13.40;8.25;;;;;;;8.42;51.56;95207.33;1615630;87;21664;-58
2021/10/26 08:38:13;;;;;;;12.30;8.10;;;;;;;8.59;50.20;95197.98;1603864;87;21194;-59
2021/10/26 08:40:48;;;;;;;13.88;9.83;;;;;;;8.78;49.65;95196.42;1587462;88;21960;-59
2021/10/26 08:43:23;;;;;;;16.00;9.85;;;;;;;9.01;48.80;95197.06;1611841;87;21379;-58
2021/10/26 08:45:51;;;;;;;16.82;10.03;;;;;;;9.21;48.68;95187.58;1623677;85;21074;-58
2021/10/26 08:48:24;;;;;;;18.30;10.58;;;;;;;9.40;48.45;95186.73;1635606;85;21080;-60
2021/10/26 08:51:00;;;;;;;13.73;9.10;;;;;;;9.62;48.38;95187.77;1633186;85;21069;-58
2021/10/26 08:53:30;;;;;;;20.40;10.78;;;;;;;9.92;47.98;95186.61;1638707;85;21321;-59
2021/10/26 08:55:59;;;;;;;18.85;10.30;;;;;;;10.26;47.04;95178.67;1615677;86;22372;-64
2021/10/26 08:58:45;;;;;;;14.33;9.63;;;;;;;10.56;46.45;95182.36;1639067;85;21194;-59
2021/10/26 09:01:13;;;;;;;18.10;10.53;;;;;;;10.93;45.41;95183.20;1630856;85;21886;-53
2021/10/26 09:03:48;;;;;;;21.27;10.90;;;;;;;11.24;44.68;95176.56;1630444;85;21198;-60
2021/10/26 09:06:27;;;;;;;15.43;9.55;;;;;;;11.42;44.17;95168.52;1606048;87;21335;-61
2021/10/26 09:08:55;;;;;;;19.77;10.58;;;;;;;11.53;43.68;95166.20;1608016;87;21077;-57
2021/10/26 09:11:38;;;;;;;14.73;8.08;;;;;;;11.65;43.42;95162.67;1615907;87;21127;-59
2021/10/26 09:17:26;;;;;;;21.52;11.10;;;;;;;11.94;42.40;95158.52;1635639;85;21547;-58
2021/10/26 09:20:23;;;;;;;15.90;9.25;;;;;;;12.15;42.90;95155.66;1630127;85;21339;-61
2021/10/26 09:22:57;;;;;;;20.68;9.08;;;;;;;12.52;41.70;95150.58;1638228;85;22181;-59
2021/10/26 09:25:37;;;;;;;15.58;9.20;;;;;;;12.84;40.43;95149.55;1623571;86;21065;-60
2021/10/26 09:28:15;;;;;;;20.15;8.98;;;;;;;13.18;39.73;95145.31;1607609;87;21520;-59
2021/10/26 09:30:42;;;;;;;11.55;8.38;;;;;;;13.59;38.86;95142.11;1576637;88;21517;-61
2021/10/26 09:33:09;;;;;;;13.48;7.58;;;;;;;13.92;38.64;95137.55;1587974;87;21349;-61
2021/10/26 09:35:36;;;;;;;13.70;7.62;;;;;;;14.22;36.96;95128.39;1610458;87;21160;-61
2021/10/26 09:38:03;;;;;;;13.28;8.95;;;;;;;14.52;36.07;95123.47;1654593;85;21590;-61
2021/10/26 09:40:42;;;;;;;14.50;9.03;;;;;;;14.83;35.24;95117.72;1633936;85;21583;-56
2021/10/26 09:43:11;;;;;;;14.95;8.23;;;;;;;15.10;34.93;95117.03;1627330;85;21523;-60
2021/10/26 09:45:38;;;;;;;19.60;9.08;;;;;;;15.48;34.05;95111.67;1628367;85;21151;-60
2021/10/26 09:48:15;;;;;;;29.55;11.57;;;;;;;15.85;33.64;95106.67;1621034;85;21158;-58
2021/10/26 09:50:42;;;;;;;21.97;10.95;;;;;;;16.22;33.17;95107.34;1627353;85;21754;-61
2021/10/26 09:53:12;;;;;;;16.60;9.35;;;;;;;16.71;32.15;95104.80;1649923;85;21612;-60
2021/10/26 09:55:48;;;;;;;17.55;7.85;;;;;;;17.25;31.06;95101.44;1612370;86;21390;-59
2021/10/26 09:58:20;;;;;;;18.67;7.62;;;;;;;17.70;30.93;95095.31;1636521;86;21181;-60
2021/10/26 10:00:48;;;;;;;13.45;7.47;;;;;;;18.29;29.54;95088.41;1644452;86;21117;-59
2021/10/26 10:03:25;;;;;;;19.15;9.05;;;;;;;18.98;28.67;95088.78;1642470;85;21102;-59
2021/10/26 10:05:57;;;;;;;19.82;8.08;;;;;;;19.54;27.77;95087.36;1634074;85;21034;-60
2021/10/26 10:08:38;;;;;;;20.97;7.05;;;;;;;20.01;27.28;95082.47;1638961;85;21072;-62
2021/10/26 10:11:17;;;;;;;9.67;6.83;;;;;;;20.47;26.01;95075.33;1600814;87;21128;-60
2021/10/26 10:13:53;;;;;;;12.98;7.17;;;;;;;20.89;25.49;95062.62;1612770;87;21065;-60
2021/10/26 10:16:25;;;;;;;14.03;8.58;;;;;;;21.18;24.98;95057.17;1586290;86;21100;-61
2021/10/26 10:18:53;;;;;;;19.77;8.83;;;;;;;21.47;25.03;95061.63;1644602;85;21622;-60
2021/10/26 10:21:23;;;;;;;16.90;9.25;;;;;;;21.84;24.50;95051.56;1626096;87;21099;-61
2021/10/26 10:23:50;;;;;;;13.48;8.35;;;;;;;22.18;24.28;95053.11;1643040;85;21919;-62
2021/10/26 10:26:26;;;;;;;18.82;8.98;;;;;;;22.76;23.73;95047.64;1602751;87;21071;-61
2021/10/26 10:28:55;;;;;;;16.65;8.95;;;;;;;23.33;23.55;95053.14;1607689;88;21143;-62
2021/10/26 10:31:26;;;;;;;12.75;7.80;;;;;;;23.82;22.69;95039.33;1602599;87;21040;-59
2021/10/26 10:33:54;;;;;;;11.97;6.60;;;;;;;24.28;21.60;95039.06;1645763;85;22260;-61
2021/10/26 10:36:34;;;;;;;11.03;5.50;;;;;;;24.41;20.96;95034.95;1640654;85;21166;-62
2021/10/26 10:39:08;;;;;;;7.65;5.08;;;;;;;24.55;20.80;95034.52;1628642;86;21185;-61
2021/10/26 10:41:40;;;;;;;8.68;5.17;;;;;;;24.99;19.64;95026.11;1599604;88;21087;-63
2021/10/26 10:44:24;;;;;;;7.20;4.35;;;;;;;25.40;19.20;95024.47;1599057;88;21486;-61
2021/10/26 10:46:53;;;;;;;8.93;4.30;;;;;;;25.89;18.72;95020.70;1594909;87;21025;-59
2021/10/26 10:49:39;;;;;;;7.37;5.42;;;;;;;26.43;17.60;95011.16;1596887;88;21159;-60
2021/10/26 10:52:21;;;;;;;11.20;6.10;;;;;;;26.65;17.44;95007.89;1591994;88;21060;-61
2021/10/26 10:57:35;;;;;;;9.38;5.80;;;;;;;27.32;16.87;95000.86;1584766;89;21110;-63
2021/10/26 11:00:25;;;;;;;14.98;7.05;;;;;;;27.39;16.78;94993.09;1581687;89;21127;-61
2021/10/26 11:02:55;;;;;;;13.32;6.53;;;;;;;27.44;16.98;95000.67;1575231;87;21214;-62
2021/10/26 11:05:38;;;;;;;15.75;7.60;;;;;;;27.52;16.96;94992.26;1592565;88;21186;-64
2021/10/26 11:08:09;;;;;;;11.08;5.83;;;;;;;27.74;17.18;94988.25;1598941;86;21139;-62
2021/10/26 11:10:55;;;;;;;13.72;6.75;;;;;;;28.09;16.63;94981.89;1592441;87;21561;-61
2021/10/26 11:13:30;;;;;;;17.35;7.20;;;;;;;28.15;16.66;94979.66;1596993;87;21027;-62
2021/10/26 11:16:05;;;;;;;12.00;7.12;;;;;;;28.29;16.61;94974.77;1610955;87;21248;-61
2021/10/26 11:18:45;;;;;;;13.13;6.53;;;;;;;28.55;16.29;94968.13;1585754;88;21081;-59
2021/10/26 11:21:27;;;;;;;10.75;6.40;;;;;;;29.02;15.83;94965.67;1577852;87;21091;-58
2021/10/26 11:24:03;;;;;;;9.75;6.17;;;;;;;29.29;15.97;94957.69;1608882;87;21202;-57
2021/10/26 11:26:44;;;;;;;8.23;5.58;;;;;;;29.64;15.70;94955.38;1601119;88;21090;-61
2021/10/26 11:29:16;;;;;;;8.75;4.30;;;;;;;29.95;14.82;94960.47;1591316;88;21284;-60
2021/10/26 11:31:53;;;;;;;9.48;5.50;;;;;;;30.15;14.14;94954.52;1601430;88;21023;-61
2021/10/26 11:34:25;;;;;;;9.15;5.40;;;;;;;30.24;14.17;94949.66;1605787;86;21046;-61
2021/10/26 11:37:07;;;;;;;12.85;5.72;;;;;;;30.50;15.00;94952.06;1566150;87;21081;-61
2021/10/26 11:39:38;;;;;;;10.48;5.67;;;;;;;30.77;14.80;94945.34;1591564;87;21058;-63
2021/10/26 11:42:17;;;;;;;13.38;7.30;;;;;;;31.05;14.09;94945.00;1599321;88;21171;-59
2021/10/26 11:44:45;;;;;;;9.95;6.33;;;;;;;31.24;14.06;94931.75;1587559;88;22144;-60
2021/10/26 11:47:12;;;;;;;9.88;6.67;;;;;;;31.40;14.02;94936.75;1601086;87;21075;-65